Time;durP1;ratioP1;P1;durP2;ratioP2;P2;SDS_P1;SDS_P2;PMS_P1;PMS_P2;Temp;Humidity;BMP_temperature;BMP_pressure;BME280_temperature;BME280_humidity;BME280_pressure;Samples;Min_cycle;Max_cycle;Signal;HPM_P1;HPM_P2
2021/11/07 00:00:51;;;;;;;35.58;23.88;;;25.90;99.90;;;;;;4172425;28;20081;-67
2021/11/07 00:03:06;;;;;;;36.38;24.48;;;26.00;99.90;;;;;;4168481;28;20179;-66
2021/11/07 00:08:19;;;;;;;37.08;23.63;;;26.00;99.90;;;;;;4159690;28;20048;-66
2021/11/07 00:12:50;;;;;;;32.30;22.73;;;26.00;99.90;;;;;;4162761;28;20136;-67
2021/11/07 00:14:57;;;;;;;34.90;23.60;;;26.10;99.90;;;;;;4162499;28;20670;-65
2021/11/07 00:17:02;;;;;;;39.95;24.75;;;26.10;99.90;;;;;;4160466;28;20148;-66
2021/11/07 00:21:17;;;;;;;39.00;25.02;;;26.00;99.90;;;;;;4157606;28;20045;-65
2021/11/07 00:23:47;;;;;;;43.00;25.95;;;26.10;99.90;;;;;;4158212;28;20061;-66
2021/11/07 00:26:01;;;;;;;38.22;26.50;;;26.30;99.90;;;;;;4160413;28;20499;-65
2021/11/07 00:28:10;;;;;;;41.10;27.27;;;26.40;99.90;;;;;;4161620;28;20520;-65
2021/11/07 00:37:09;;;;;;;40.08;24.45;;;26.50;99.90;;;;;;4160592;28;20049;-65
2021/11/07 00:43:45;;;;;;;40.72;25.42;;;26.70;99.90;;;;;;4154855;28;20037;-65
2021/11/07 00:50:17;;;;;;;39.38;27.80;;;26.60;99.90;;;;;;4157285;28;20377;-66
2021/11/07 00:52:33;;;;;;;46.42;29.58;;;26.60;99.90;;;;;;4149048;28;21296;-66
2021/11/07 00:56:58;;;;;;;46.72;28.73;;;26.70;99.90;;;;;;4160693;28;20057;-66
2021/11/07 00:59:09;;;;;;;44.17;28.23;;;26.70;99.90;;;;;;4159809;28;20353;-65
2021/11/07 01:01:18;;;;;;;48.95;28.42;;;26.70;99.90;;;;;;4155736;28;20050;-66
2021/11/07 01:03:24;;;;;;;43.08;28.42;;;26.70;99.90;;;;;;4156304;28;20099;-66
2021/11/07 01:05:34;;;;;;;41.78;27.13;;;26.80;99.90;;;;;;4160594;28;20141;-67
2021/11/07 01:07:39;;;;;;;56.05;28.42;;;26.80;99.90;;;;;;4160288;28;20128;-67
2021/11/07 01:09:43;;;;;;;41.70;27.30;;;26.90;99.90;;;;;;4158726;28;20045;-66
2021/11/07 01:11:49;;;;;;;38.92;26.02;;;27.00;99.90;;;;;;4150819;28;20072;-68
2021/11/07 01:13:54;;;;;;;40.70;27.75;;;27.10;99.90;;;;;;4157386;28;20083;-66
2021/11/07 01:15:58;;;;;;;42.08;26.17;;;27.20;99.90;;;;;;4173801;28;20060;-66
2021/11/07 01:18:03;;;;;;;41.90;25.70;;;27.30;99.90;;;;;;4154024;28;20041;-65
2021/11/07 01:20:09;;;;;;;44.05;25.10;;;27.40;99.90;;;;;;4156275;28;20100;-66
2021/11/07 01:22:21;;;;;;;40.67;23.92;;;27.50;99.90;;;;;;4150651;28;20049;-67
2021/11/07 01:24:34;;;;;;;30.48;19.80;;;27.50;99.90;;;;;;4155661;28;20052;-66
2021/11/07 01:26:42;;;;;;;23.20;16.67;;;27.50;99.90;;;;;;4155764;28;20091;-67
2021/11/07 01:28:50;;;;;;;29.45;18.80;;;27.50;99.90;;;;;;4161133;28;20042;-67
2021/11/07 01:30:59;;;;;;;29.40;19.48;;;27.50;99.90;;;;;;4156074;28;20819;-67
2021/11/07 01:33:16;;;;;;;29.48;18.38;;;27.50;99.90;;;;;;4153606;28;20053;-67
2021/11/07 01:37:48;;;;;;;25.55;17.65;;;27.50;99.90;;;;;;4156939;28;20041;-66
2021/11/07 01:44:05;;;;;;;30.35;18.63;;;27.80;99.90;;;;;;4158028;28;20049;-67
2021/11/07 01:48:20;;;;;;;28.30;17.88;;;27.90;99.90;;;;;;4159434;28;20053;-66
2021/11/07 01:50:25;;;;;;;24.05;17.80;;;27.90;99.90;;;;;;4160378;28;20041;-68
2021/11/07 01:52:35;;;;;;;26.98;18.40;;;28.00;99.90;;;;;;4148285;28;20168;-66
2021/11/07 01:54:58;;;;;;;25.58;17.35;;;28.00;99.90;;;;;;4160743;28;20061;-68
2021/11/07 01:57:22;;;;;;;26.60;15.68;;;28.10;99.90;;;;;;4158800;28;20099;-67
2021/11/07 01:59:50;;;;;;;26.48;15.95;;;28.10;99.90;;;;;;4144469;28;20061;-67
2021/11/07 02:01:58;;;;;;;21.52;14.75;;;28.20;99.90;;;;;;4153901;28;20077;-67
2021/11/07 02:04:03;;;;;;;24.77;14.50;;;28.30;99.90;;;;;;4157141;28;20524;-67
2021/11/07 02:06:09;;;;;;;25.33;16.23;;;28.30;99.90;;;;;;4160189;28;20570;-68
2021/11/07 02:08:13;;;;;;;23.05;15.68;;;28.40;99.90;;;;;;4159504;28;20044;-67
2021/11/07 02:10:20;;;;;;;18.40;13.45;;;28.40;99.90;;;;;;4158296;28;20049;-67
2021/11/07 02:12:25;;;;;;;24.48;16.33;;;28.40;99.90;;;;;;4146760;28;20396;-68
2021/11/07 02:14:31;;;;;;;22.75;15.63;;;28.50;99.90;;;;;;4158465;28;20045;-68
2021/11/07 02:16:37;;;;;;;24.73;16.02;;;28.50;99.90;;;;;;4144743;28;20049;-68
2021/11/07 02:18:42;;;;;;;24.73;16.15;;;28.60;99.90;;;;;;4148561;28;20073;-66
2021/11/07 02:21:05;;;;;;;;;;;28.60;99.90;;;;;;4151215;28;20052;-67
2021/11/07 02:23:16;;;;;;;24.98;15.43;;;28.80;99.90;;;;;;4148179;28;20284;-67
2021/11/07 02:25:38;;;;;;;22.23;14.27;;;28.80;99.90;;;;;;4156036;28;20432;-67
2021/11/07 02:27:42;;;;;;;23.45;14.45;;;28.80;99.90;;;;;;4156531;28;20041;-67
2021/11/07 02:29:47;;;;;;;27.73;14.65;;;28.80;99.90;;;;;;4157860;28;20049;-67
2021/11/07 02:31:55;;;;;;;23.27;14.05;;;28.90;99.90;;;;;;4152305;28;20051;-65
2021/11/07 02:34:00;;;;;;;20.02;14.10;;;28.90;99.90;;;;;;4143349;28;20045;-67
2021/11/07 02:36:13;;;;;;;22.38;13.82;;;29.10;99.90;;;;;;4162337;28;20045;-68
2021/11/07 02:38:18;;;;;;;21.65;13.52;;;29.10;99.90;;;;;;4155393;28;20052;-66
2021/11/07 02:40:22;;;;;;;23.02;14.27;;;29.20;99.90;;;;;;4158295;28;20065;-67
2021/11/07 02:42:27;;;;;;;22.48;13.80;;;29.20;99.90;;;;;;4149674;28;20463;-67
2021/11/07 02:44:40;;;;;;;28.90;13.85;;;29.20;99.90;;;;;;4158660;28;20049;-67
2021/11/07 02:46:45;;;;;;;19.33;12.90;;;29.20;99.40;;;;;;4158878;28;20072;-69
2021/11/07 02:48:55;;;;;;;25.33;13.27;;;29.20;99.20;;;;;;4157990;28;20048;-69
2021/11/07 02:51:01;;;;;;;22.90;13.70;;;29.40;99.90;;;;;;4151745;28;20065;-72
2021/11/07 02:53:05;;;;;;;17.88;12.27;;;29.40;99.10;;;;;;4154645;28;20041;-71
2021/11/07 02:55:10;;;;;;;19.15;12.32;;;29.50;98.80;;;;;;4157543;28;20049;-71
2021/11/07 02:57:18;;;;;;;20.83;12.98;;;29.40;98.70;;;;;;4159493;28;20055;-71
2021/11/07 02:59:24;;;;;;;20.10;12.63;;;29.50;98.80;;;;;;4158699;28;20049;-71
2021/11/07 03:01:31;;;;;;;21.02;13.10;;;29.50;98.60;;;;;;4150817;28;20066;-70
2021/11/07 03:03:38;;;;;;;17.02;11.85;;;29.50;98.50;;;;;;4152200;28;20104;-70
2021/11/07 03:05:43;;;;;;;18.42;11.88;;;29.60;98.50;;;;;;4153489;28;20042;-70
2021/11/07 03:07:51;;;;;;;19.65;12.30;;;29.60;97.90;;;;;;4159086;28;20049;-70
2021/11/07 03:09:56;;;;;;;20.52;14.25;;;29.70;97.70;;;;;;4159674;28;20050;-70
2021/11/07 03:12:01;;;;;;;29.52;14.40;;;29.70;97.70;;;;;;4147276;28;20052;-71
2021/11/07 03:14:07;;;;;;;19.70;12.07;;;29.70;97.60;;;;;;4158914;28;20064;-71
2021/11/07 03:16:23;;;;;;;16.40;10.02;;;29.80;98.00;;;;;;4158499;28;20508;-70
2021/11/07 03:18:30;;;;;;;17.27;10.07;;;29.90;96.50;;;;;;4158540;28;20041;-71
2021/11/07 03:20:35;;;;;;;19.42;9.40;;;29.90;96.90;;;;;;4158325;28;20049;-70
2021/11/07 03:22:40;;;;;;;12.95;8.18;;;29.90;96.80;;;;;;4151462;28;20492;-70
2021/11/07 03:24:51;;;;;;;15.07;8.65;;;29.90;96.60;;;;;;4158853;28;20037;-70
2021/11/07 03:26:58;;;;;;;17.13;9.02;;;29.90;96.70;;;;;;4158791;28;20048;-71
2021/11/07 03:29:04;;;;;;;15.60;8.65;;;30.10;96.10;;;;;;4160148;28;20046;-71
2021/11/07 03:31:12;;;;;;;13.98;8.00;;;30.10;95.90;;;;;;4155467;28;20401;-70
2021/11/07 03:33:28;;;;;;;21.40;8.05;;;30.10;95.50;;;;;;4152978;28;20037;-72
2021/11/07 03:35:35;;;;;;;12.18;7.45;;;30.20;95.60;;;;;;4158204;28;20140;-72
2021/11/07 03:37:45;;;;;;;15.50;8.07;;;30.30;94.90;;;;;;4154276;28;20516;-72
2021/11/07 03:39:52;;;;;;;11.82;7.88;;;30.20;94.80;;;;;;4157140;28;20045;-71
2021/11/07 03:41:56;;;;;;;16.92;7.82;;;30.20;94.70;;;;;;4152044;28;20041;-70
2021/11/07 03:44:01;;;;;;;13.30;6.72;;;30.30;94.90;;;;;;4156476;28;20049;-70
2021/11/07 03:46:06;;;;;;;17.63;8.20;;;30.30;94.40;;;;;;4158445;28;20317;-71
2021/11/07 03:48:10;;;;;;;16.02;8.48;;;30.30;95.00;;;;;;4159170;28;20045;-71
2021/11/07 03:50:15;;;;;;;17.77;8.70;;;30.30;94.90;;;;;;4171569;28;20334;-71
2021/11/07 03:52:20;;;;;;;14.63;8.10;;;30.50;94.30;;;;;;4151499;28;20132;-71
2021/11/07 03:54:29;;;;;;;16.58;8.80;;;30.50;94.50;;;;;;4162346;28;20072;-72
2021/11/07 03:56:34;;;;;;;13.90;8.48;;;30.40;94.60;;;;;;4161147;28;20440;-71
2021/11/07 03:58:38;;;;;;;16.65;8.63;;;30.50;94.90;;;;;;4158330;28;20053;-71
2021/11/07 04:00:44;;;;;;;12.60;7.80;;;30.60;94.40;;;;;;4157905;28;20081;-71
2021/11/07 04:02:50;;;;;;;13.70;7.57;;;30.60;94.60;;;;;;4152417;28;20072;-71
2021/11/07 04:04:54;;;;;;;16.00;8.57;;;30.50;94.30;;;;;;4160789;28;20064;-70
2021/11/07 04:06:59;;;;;;;17.95;9.43;;;30.50;94.50;;;;;;4160515;28;20049;-70
2021/11/07 04:09:10;;;;;;;14.70;8.57;;;30.40;95.10;;;;;;4161923;28;20045;-71
2021/11/07 04:11:14;;;;;;;21.60;10.02;;;30.40;95.40;;;;;;4158827;28;20107;-71
2021/11/07 04:13:19;;;;;;;18.70;9.88;;;30.60;95.10;;;;;;4155050;28;20132;-70
2021/11/07 04:15:25;;;;;;;17.23;9.30;;;30.60;94.60;;;;;;4161580;28;20369;-72
2021/11/07 04:17:33;;;;;;;18.98;9.27;;;30.50;94.90;;;;;;4161224;28;20076;-71
2021/11/07 04:19:37;;;;;;;17.88;9.63;;;30.40;95.00;;;;;;4157020;28;20095;-71
2021/11/07 04:21:45;;;;;;;17.65;8.95;;;30.50;95.60;;;;;;4153884;28;20424;-70
2021/11/07 04:23:49;;;;;;;19.10;9.18;;;30.50;95.50;;;;;;4157980;28;20041;-71
2021/11/07 04:25:54;;;;;;;18.73;9.05;;;30.50;95.40;;;;;;4161234;28;20045;-71
2021/11/07 04:27:59;;;;;;;14.48;8.57;;;30.50;95.20;;;;;;4158127;28;20049;-71
2021/11/07 04:30:05;;;;;;;14.32;8.75;;;30.70;95.10;;;;;;4161153;28;20069;-71
2021/11/07 04:32:10;;;;;;;16.67;8.05;;;30.90;95.50;;;;;;4148805;28;20073;-71
2021/11/07 04:34:16;;;;;;;11.23;8.02;;;31.00;93.90;;;;;;4161981;28;20472;-71
2021/11/07 04:36:20;;;;;;;21.30;7.95;;;31.10;93.40;;;;;;4162184;28;20052;-70
2021/11/07 04:38:27;;;;;;;17.38;7.90;;;31.20;93.50;;;;;;4161976;28;20050;-70
2021/11/07 04:40:31;;;;;;;10.38;6.90;;;31.30;93.00;;;;;;4159500;28;20133;-71
2021/11/07 04:42:37;;;;;;;9.68;6.55;;;31.30;92.80;;;;;;4150947;28;20482;-69
2021/11/07 04:44:42;;;;;;;14.35;6.30;;;31.30;92.40;;;;;;4158731;28;20045;-71
2021/11/07 04:46:48;;;;;;;10.57;6.00;;;31.30;92.40;;;;;;4160161;28;20346;-68
2021/11/07 04:48:53;;;;;;;11.50;6.32;;;31.30;92.80;;;;;;4159959;28;20416;-70
2021/11/07 04:50:59;;;;;;;8.98;6.03;;;31.40;92.50;;;;;;4155482;28;20049;-69
2021/11/07 04:53:07;;;;;;;13.52;5.97;;;31.50;92.70;;;;;;4154179;28;20313;-69
2021/11/07 04:55:12;;;;;;;12.35;6.75;;;31.50;92.50;;;;;;4159288;28;20128;-68
2021/11/07 04:57:19;;;;;;;11.88;6.78;;;31.40;93.00;;;;;;4160273;28;20041;-69
2021/11/07 04:59:23;;;;;;;11.85;7.13;;;31.40;93.40;;;;;;4159084;28;20136;-69
2021/11/07 05:01:28;;;;;;;12.13;7.18;;;31.40;92.60;;;;;;4152600;28;20543;-70
2021/11/07 05:03:34;;;;;;;12.23;7.03;;;31.30;92.90;;;;;;4153854;28;20103;-69
2021/11/07 05:05:39;;;;;;;15.40;7.15;;;31.10;93.00;;;;;;4156009;28;20425;-67
2021/11/07 05:07:44;;;;;;;13.30;6.93;;;31.10;93.00;;;;;;4158356;28;20042;-65
2021/11/07 05:09:48;;;;;;;10.80;6.43;;;31.00;92.60;;;;;;4159091;28;20045;-69
2021/11/07 05:11:54;;;;;;;9.43;6.55;;;31.20;92.40;;;;;;4151715;28;20096;-66
2021/11/07 05:13:59;;;;;;;11.20;7.03;;;31.20;93.10;;;;;;4156429;28;20455;-69
2021/11/07 05:16:04;;;;;;;15.00;7.30;;;31.20;93.30;;;;;;4159136;28;20538;-68
2021/11/07 05:18:10;;;;;;;15.88;8.30;;;31.20;93.70;;;;;;4158678;28;20060;-69
2021/11/07 05:20:15;;;;;;;17.67;10.13;;;31.00;94.20;;;;;;4158129;28;20419;-68
2021/11/07 05:22:19;;;;;;;25.23;15.30;;;31.00;94.10;;;;;;4149222;28;20084;-67
2021/11/07 05:24:24;;;;;;;21.60;14.98;;;31.00;94.30;;;;;;4153811;28;20099;-68
2021/11/07 05:26:29;;;;;;;18.67;12.63;;;31.10;94.20;;;;;;4157436;28;20079;-70
2021/11/07 05:28:34;;;;;;;19.17;9.43;;;31.20;93.70;;;;;;4156867;28;20100;-71
2021/11/07 05:30:38;;;;;;;16.80;8.20;;;31.30;93.40;;;;;;4159225;28;20037;-70
2021/11/07 05:32:44;;;;;;;25.00;7.82;;;31.30;92.50;;;;;;4151780;28;20041;-68
2021/11/07 05:34:51;;;;;;;14.52;7.72;;;31.40;92.90;;;;;;4158467;28;20076;-68
2021/11/07 05:36:56;;;;;;;12.80;6.70;;;31.50;92.80;;;;;;4161754;28;20041;-68
2021/11/07 05:39:00;;;;;;;15.30;7.53;;;31.60;92.40;;;;;;4163027;28;20707;-68
2021/11/07 05:41:07;;;;;;;15.00;7.32;;;31.60;92.80;;;;;;4154157;28;20055;-69
2021/11/07 05:43:12;;;;;;;9.85;7.45;;;31.60;92.70;;;;;;4154872;28;20136;-68
2021/11/07 05:45:17;;;;;;;12.75;6.97;;;31.60;93.00;;;;;;4160865;28;20402;-68
2021/11/07 05:47:22;;;;;;;12.50;7.47;;;31.50;93.00;;;;;;4158309;28;20488;-68
2021/11/07 05:49:27;;;;;;;10.70;7.03;;;31.50;92.80;;;;;;4157676;28;20045;-68
2021/11/07 05:51:36;;;;;;;11.70;6.88;;;31.30;93.00;;;;;;4152992;28;20040;-68
2021/11/07 05:53:41;;;;;;;11.10;7.32;;;31.10;92.80;;;;;;4157363;28;20095;-68
2021/11/07 05:55:46;;;;;;;10.23;7.00;;;31.10;92.90;;;;;;4160307;28;20451;-67
2021/11/07 05:57:50;;;;;;;13.00;6.82;;;31.10;92.80;;;;;;4158515;28;20357;-68
2021/11/07 05:59:55;;;;;;;11.13;6.82;;;31.30;92.70;;;;;;4160101;28;20106;-68
2021/11/07 06:02:00;;;;;;;11.68;7.18;;;31.40;92.60;;;;;;4153320;28;20107;-68
2021/11/07 06:04:05;;;;;;;11.20;6.80;;;31.60;92.60;;;;;;4155965;28;20053;-68
2021/11/07 06:06:13;;;;;;;11.82;6.53;;;31.50;92.10;;;;;;4158120;28;20084;-68
2021/11/07 06:08:17;;;;;;;8.30;6.57;;;31.40;91.80;;;;;;4158503;28;20180;-69
2021/11/07 06:10:22;;;;;;;11.20;6.35;;;31.40;92.20;;;;;;4157686;28;20117;-67
2021/11/07 06:12:26;;;;;;;16.25;6.30;;;31.50;91.80;;;;;;4149649;28;20412;-68
2021/11/07 06:14:31;;;;;;;12.20;6.43;;;31.60;91.80;;;;;;4159194;28;20057;-68
2021/11/07 06:16:35;;;;;;;11.18;6.25;;;31.70;91.30;;;;;;4155234;28;20041;-68
2021/11/07 06:18:40;;;;;;;12.18;6.43;;;31.80;91.30;;;;;;4158460;28;20068;-68
2021/11/07 06:20:45;;;;;;;13.00;6.93;;;31.80;91.20;;;;;;4155691;28;20037;-69
2021/11/07 06:22:49;;;;;;;15.07;6.15;;;31.80;90.90;;;;;;4153585;28;20077;-68
2021/11/07 06:24:55;;;;;;;13.65;6.68;;;31.90;90.60;;;;;;4158708;28;20049;-68
2021/11/07 06:27:00;;;;;;;10.02;5.82;;;32.00;90.70;;;;;;4155808;28;20044;-69
2021/11/07 06:29:05;;;;;;;11.45;6.43;;;32.00;90.70;;;;;;4159865;28;20038;-70
2021/11/07 06:31:12;;;;;;;12.18;6.75;;;32.10;90.70;;;;;;4155317;28;20081;-69
2021/11/07 06:33:16;;;;;;;9.68;6.78;;;32.10;91.10;;;;;;4151677;28;20059;-69
2021/11/07 06:35:21;;;;;;;9.25;6.82;;;32.10;91.10;;;;;;4156814;28;20044;-69
2021/11/07 06:37:26;;;;;;;9.68;6.75;;;32.10;91.20;;;;;;4159302;28;20494;-68
2021/11/07 06:39:30;;;;;;;10.35;6.45;;;32.10;91.30;;;;;;4158187;28;20038;-69
2021/11/07 06:41:35;;;;;;;13.68;6.28;;;32.10;91.30;;;;;;4152921;28;20049;-71
2021/11/07 06:43:39;;;;;;;10.93;7.13;;;32.10;91.20;;;;;;4152691;28;20041;-68
2021/11/07 06:45:44;;;;;;;14.52;8.38;;;32.10;91.00;;;;;;4157680;28;20556;-68
2021/11/07 06:47:49;;;;;;;14.63;8.75;;;32.30;91.10;;;;;;4157593;28;20212;-68
2021/11/07 06:49:53;;;;;;;11.55;7.00;;;32.30;91.20;;;;;;4155962;28;20775;-68
2021/11/07 06:51:58;;;;;;;12.43;6.97;;;32.40;91.00;;;;;;4149031;28;20041;-68
2021/11/07 06:54:03;;;;;;;10.20;6.80;;;32.40;91.30;;;;;;4151100;28;20044;-69
2021/11/07 06:56:08;;;;;;;9.48;6.47;;;32.40;90.90;;;;;;4154940;28;20053;-73
2021/11/07 06:58:14;;;;;;;12.27;6.47;;;32.30;91.10;;;;;;4154410;28;20180;-68
2021/11/07 07:00:25;;;;;;;8.75;6.10;;;32.10;90.80;;;;;;4155107;28;20239;-69
2021/11/07 07:02:30;;;;;;;11.23;6.47;;;32.10;91.00;;;;;;4147494;28;20057;-69
2021/11/07 07:04:34;;;;;;;15.38;7.32;;;32.00;91.10;;;;;;4153366;28;20132;-68
2021/11/07 07:06:39;;;;;;;11.20;6.32;;;31.90;91.30;;;;;;4155938;28;20064;-68
2021/11/07 07:08:52;;;;;;;10.40;7.22;;;31.90;91.50;;;;;;4155578;28;20046;-68
2021/11/07 07:11:08;;;;;;;10.55;7.00;;;31.80;91.40;;;;;;4151661;28;20472;-68
2021/11/07 07:13:21;;;;;;;11.82;7.07;;;31.80;91.50;;;;;;4152355;28;20471;-68
2021/11/07 07:33:32;;;;;;;20.55;7.80;;;31.70;92.30;;;;;;4154686;28;20053;-69
2021/11/07 07:35:36;;;;;;;12.65;8.02;;;31.70;92.40;;;;;;4153416;28;20455;-69
2021/11/07 07:37:41;;;;;;;13.30;8.70;;;31.70;92.40;;;;;;4160935;28;20049;-68
2021/11/07 07:39:46;;;;;;;13.43;8.13;;;31.70;92.50;;;;;;4160075;28;20045;-69
2021/11/07 07:41:50;;;;;;;15.63;7.80;;;31.70;92.40;;;;;;4153797;28;20053;-69
2021/11/07 07:43:56;;;;;;;11.95;6.85;;;31.70;92.00;;;;;;4157381;28;20646;-70
2021/11/07 07:46:06;;;;;;;12.63;7.47;;;31.90;91.70;;;;;;4168722;28;20053;-70
2021/11/07 07:48:11;;;;;;;12.95;7.25;;;31.90;91.40;;;;;;4159704;28;20080;-70
2021/11/07 07:50:16;;;;;;;10.80;6.78;;;32.00;91.40;;;;;;4161384;28;20409;-70
2021/11/07 07:52:24;;;;;;;10.15;7.20;;;32.00;91.10;;;;;;4151084;28;20049;-70
2021/11/07 07:54:29;;;;;;;8.38;7.28;;;32.10;90.90;;;;;;4155424;28;20451;-68
2021/11/07 07:56:34;;;;;;;10.85;7.03;;;32.10;90.90;;;;;;4156243;28;20045;-69
2021/11/07 07:58:39;;;;;;;14.23;7.55;;;32.20;90.80;;;;;;4158676;28;20037;-69
2021/11/07 08:00:43;;;;;;;12.48;7.35;;;32.10;90.70;;;;;;4158428;28;20069;-70
2021/11/07 08:02:48;;;;;;;10.07;7.35;;;32.10;90.80;;;;;;4151968;28;20050;-68
2021/11/07 08:04:53;;;;;;;13.73;7.40;;;32.10;90.70;;;;;;4160430;28;20096;-69
2021/11/07 08:06:58;;;;;;;10.43;7.60;;;32.10;90.90;;;;;;4160463;28;20504;-70
2021/11/07 08:09:02;;;;;;;11.52;8.10;;;32.10;90.70;;;;;;4161005;28;20449;-69
2021/11/07 08:11:07;;;;;;;15.18;7.63;;;32.20;91.10;;;;;;4156179;28;20038;-69
2021/11/07 08:13:12;;;;;;;12.40;7.70;;;32.10;91.10;;;;;;4153928;28;20069;-70
2021/11/07 08:15:16;;;;;;;12.27;7.45;;;32.10;90.90;;;;;;4159005;28;20214;-70
2021/11/07 08:17:21;;;;;;;12.82;7.53;;;32.10;91.10;;;;;;4156256;28;20132;-69
2021/11/07 08:19:25;;;;;;;11.07;7.28;;;32.10;90.70;;;;;;4159248;28;20172;-68
2021/11/07 08:21:37;;;;;;;11.40;7.30;;;32.10;90.90;;;;;;4154486;28;20496;-69
2021/11/07 08:23:41;;;;;;;11.15;6.90;;;32.10;90.60;;;;;;4154799;28;20042;-69
2021/11/07 08:25:46;;;;;;;9.00;6.25;;;32.10;90.60;;;;;;4160199;28;20488;-68
2021/11/07 08:28:03;;;;;;;12.73;6.50;;;32.10;90.60;;;;;;4161236;28;20067;-69
2021/11/07 08:30:09;;;;;;;12.55;6.53;;;32.10;90.80;;;;;;4156289;28;20128;-68
2021/11/07 08:32:15;;;;;;;11.95;6.25;;;32.20;91.10;;;;;;4150412;28;20112;-69
2021/11/07 08:34:24;;;;;;;11.15;6.22;;;32.20;90.90;;;;;;4159376;28;20076;-67
2021/11/07 08:38:59;;;;;;;11.13;6.28;;;32.20;90.30;;;;;;4166573;28;20057;-67
2021/11/07 08:41:05;;;;;;;11.63;5.70;;;32.20;90.50;;;;;;4155784;28;20500;-67
2021/11/07 09:08:18;;;;;;;10.38;5.97;;;32.10;90.50;;;;;;4155759;28;20045;-67
2021/11/07 09:10:24;;;;;;;12.18;6.38;;;32.10;90.50;;;;;;4152926;28;20055;-66
2021/11/07 09:12:32;;;;;;;17.65;6.28;;;32.10;90.60;;;;;;4146161;28;20127;-68
2021/11/07 09:14:37;;;;;;;13.25;6.57;;;32.00;90.60;;;;;;4153684;28;20056;-67
2021/11/07 09:16:41;;;;;;;11.57;6.68;;;32.00;90.50;;;;;;4153454;28;20084;-68
2021/11/07 09:18:46;;;;;;;13.43;6.95;;;32.00;90.60;;;;;;4153232;28;20045;-68
2021/11/07 09:21:07;;;;;;;8.95;6.30;;;31.90;90.60;;;;;;4150823;28;20054;-68
2021/11/07 09:30:35;;;;;;;10.35;6.45;;;31.90;90.60;;;;;;4155732;28;20305;-68
2021/11/07 09:32:52;;;;;;;12.38;7.60;;;31.90;90.70;;;;;;4150372;28;20111;-68
2021/11/07 09:37:38;;;;;;;23.85;12.40;;;31.80;91.10;;;;;;4156893;28;20464;-67
2021/11/07 09:39:39;;;;;;;27.73;16.80;;;31.80;90.90;;;;;;4166504;28;20080;-67
2021/11/07 09:44:01;;;;;;;25.30;14.25;;;31.70;90.40;;;;;;4153443;28;20058;-67
2021/11/07 09:50:29;;;;;;;16.05;8.10;;;31.50;90.70;;;;;;4153731;28;20654;-67
2021/11/07 09:52:41;;;;;;;17.25;8.98;;;31.50;91.10;;;;;;4146915;28;20037;-66
2021/11/07 09:54:49;;;;;;;14.05;8.57;;;31.50;90.90;;;;;;4153279;28;20500;-67
2021/11/07 09:56:58;;;;;;;15.50;9.55;;;31.40;91.50;;;;;;4157108;28;20045;-67
2021/11/07 09:59:02;;;;;;;15.07;9.90;;;31.40;91.70;;;;;;4168543;28;20503;-67
2021/11/07 10:01:08;;;;;;;18.10;8.98;;;31.30;91.80;;;;;;4151961;28;20119;-67
2021/11/07 10:03:14;;;;;;;16.08;9.40;;;31.30;92.00;;;;;;4147014;28;20652;-69
2021/11/07 10:05:23;;;;;;;18.88;10.10;;;31.20;92.30;;;;;;4150353;28;20057;-67
2021/11/07 10:07:33;;;;;;;16.05;10.05;;;31.20;92.40;;;;;;4159152;28;20044;-68
2021/11/07 10:09:40;;;;;;;19.55;9.52;;;31.20;92.60;;;;;;4151161;28;20057;-67
2021/11/07 10:12:10;;;;;;;15.43;9.85;;;31.10;92.30;;;;;;4149410;28;20050;-68
2021/11/07 10:14:17;;;;;;;17.60;10.43;;;31.10;92.60;;;;;;4159190;28;20183;-68
2021/11/07 10:16:22;;;;;;;14.15;10.00;;;31.10;92.60;;;;;;4157966;28;20045;-69
2021/11/07 10:20:53;;;;;;;37.63;12.55;;;31.10;92.70;;;;;;4156953;28;20077;-67
2021/11/07 10:23:10;;;;;;;35.03;14.45;;;31.10;92.70;;;;;;4151204;28;20045;-68
2021/11/07 10:25:18;;;;;;;28.95;13.35;;;31.10;92.80;;;;;;4158946;28;20076;-68
2021/11/07 10:27:23;;;;;;;31.92;14.13;;;31.10;92.80;;;;;;4156251;28;20412;-68
2021/11/07 10:29:36;;;;;;;33.58;14.20;;;31.10;93.10;;;;;;4159177;28;20574;-69
2021/11/07 10:31:47;;;;;;;36.22;14.35;;;31.10;92.80;;;;;;4143030;28;20042;-70
2021/11/07 10:40:50;;;;;;;37.20;14.10;;;31.00;94.20;;;;;;4154341;28;20038;-68
2021/11/07 10:43:16;;;;;;;30.70;13.98;;;30.90;94.40;;;;;;4148411;28;20467;-72
2021/11/07 10:48:03;;;;;;;25.48;12.90;;;30.90;94.80;;;;;;4154274;28;20043;-70
2021/11/07 10:52:33;;;;;;;25.88;14.07;;;30.80;95.20;;;;;;4144994;28;20504;-70
2021/11/07 10:54:41;;;;;;;29.08;16.10;;;30.80;95.20;;;;;;4151323;28;20052;-69
2021/11/07 10:56:47;;;;;;;29.00;17.08;;;30.80;95.40;;;;;;4154657;28;20128;-68
2021/11/07 10:58:52;;;;;;;31.77;18.73;;;30.80;95.40;;;;;;4155000;28;20079;-69
2021/11/07 11:00:57;;;;;;;28.90;18.73;;;30.80;95.60;;;;;;4146562;28;20504;-69
2021/11/07 11:03:07;;;;;;;33.13;19.50;;;30.80;95.90;;;;;;4152782;28;20531;-71
2021/11/07 11:05:21;;;;;;;32.53;19.83;;;30.70;96.10;;;;;;4151185;28;20045;-70
2021/11/07 11:07:25;;;;;;;31.30;19.27;;;30.70;96.30;;;;;;4155254;28;20045;-69
2021/11/07 11:09:36;;;;;;;30.20;19.48;;;30.70;96.40;;;;;;4154002;28;20049;-70
2021/11/07 11:11:55;;;;;;;38.70;20.83;;;30.60;96.60;;;;;;4146164;28;20340;-70
2021/11/07 11:14:18;;;;;;;46.90;23.40;;;30.60;96.70;;;;;;4151654;28;20042;-71
2021/11/07 11:18:53;;;;;;;32.92;19.55;;;30.50;96.70;;;;;;4155510;28;20056;-69
2021/11/07 11:21:21;;;;;;;37.35;19.77;;;30.50;96.80;;;;;;4149335;28;20060;-71
2021/11/07 11:23:57;;;;;;;42.17;19.50;;;30.50;96.80;;;;;;4154460;28;20049;-70
2021/11/07 11:26:24;;;;;;;35.22;19.73;;;30.50;96.90;;;;;;4156004;28;20141;-70
2021/11/07 11:28:34;;;;;;;37.20;20.45;;;30.50;96.90;;;;;;4154620;28;20047;-71
2021/11/07 11:33:05;;;;;;;38.90;21.38;;;30.40;97.30;;;;;;4149609;28;20571;-71
2021/11/07 11:35:24;;;;;;;41.15;20.80;;;30.40;97.20;;;;;;4152433;28;20040;-71
2021/11/07 11:42:23;;;;;;;37.25;19.30;;;30.40;97.60;;;;;;4150144;28;20045;-69
2021/11/07 11:44:28;;;;;;;39.67;19.67;;;30.40;97.60;;;;;;4156367;28;20421;-69
2021/11/07 11:58:49;;;;;;;38.33;20.02;;;30.30;97.90;;;;;;4154809;28;20049;-69
2021/11/07 12:03:15;;;;;;;39.97;21.55;;;30.30;98.20;;;;;;4150101;28;20519;-71
2021/11/07 12:07:33;;;;;;;38.78;23.90;;;30.30;98.40;;;;;;4151836;28;20515;-69
2021/11/07 12:09:58;;;;;;;47.30;27.97;;;30.30;98.60;;;;;;4158908;28;20053;-69
2021/11/07 12:12:13;;;;;;;56.40;31.75;;;30.20;98.60;;;;;;4152484;28;20385;-70
2021/11/07 12:14:42;;;;;;;53.60;32.97;;;30.20;98.50;;;;;;4161392;28;20076;-69
2021/11/07 12:17:04;;;;;;;54.35;34.75;;;30.10;98.50;;;;;;4160750;28;20451;-69
2021/11/07 12:19:10;;;;;;;58.03;35.42;;;30.00;98.60;;;;;;4158567;28;20053;-69
2021/11/07 12:21:14;;;;;;;56.63;34.83;;;30.00;98.40;;;;;;4156057;28;20056;-70
2021/11/07 12:23:28;;;;;;;61.28;34.58;;;30.00;98.20;;;;;;4155748;28;20053;-69
2021/11/07 12:25:34;;;;;;;53.63;34.50;;;30.10;98.40;;;;;;4156359;28;20053;-70
2021/11/07 12:27:52;;;;;;;58.25;35.10;;;30.10;98.30;;;;;;4161565;28;20056;-68
2021/11/07 12:30:04;;;;;;;60.05;34.30;;;30.10;98.50;;;;;;4151811;28;20041;-68
2021/11/07 12:32:09;;;;;;;55.15;30.58;;;30.00;98.60;;;;;;4151565;28;20049;-70
2021/11/07 12:34:20;;;;;;;54.78;31.65;;;30.00;98.90;;;;;;4157540;28;20042;-68
2021/11/07 12:41:21;;;;;;;50.92;28.63;;;30.00;99.10;;;;;;4156007;28;20087;-69
2021/11/07 12:43:38;;;;;;;51.97;28.27;;;29.90;99.20;;;;;;4154650;28;20872;-68
2021/11/07 12:45:46;;;;;;;49.17;28.42;;;29.90;99.10;;;;;;4154407;28;20132;-69
2021/11/07 12:47:57;;;;;;;48.92;27.60;;;29.90;99.00;;;;;;4156988;28;20508;-69
2021/11/07 12:50:05;;;;;;;46.75;27.00;;;30.00;99.00;;;;;;4156658;28;20045;-70
2021/11/07 12:52:14;;;;;;;48.22;26.98;;;29.90;98.90;;;;;;4152866;28;20048;-70
2021/11/07 12:54:40;;;;;;;49.67;27.25;;;30.00;99.10;;;;;;4154457;28;20053;-67
2021/11/07 12:57:05;;;;;;;44.17;26.35;;;29.90;99.30;;;;;;4151494;28;20418;-69
2021/11/07 12:59:30;;;;;;;48.28;27.45;;;29.90;99.30;;;;;;4155902;28;20061;-69
2021/11/07 13:01:54;;;;;;;47.47;27.67;;;29.90;99.40;;;;;;4153010;28;20601;-70
2021/11/07 13:04:01;;;;;;;48.28;27.48;;;29.90;99.50;;;;;;4155558;28;20155;-69
2021/11/07 13:06:06;;;;;;;46.25;27.80;;;29.90;99.50;;;;;;4159019;28;20462;-72
2021/11/07 13:08:24;;;;;;;48.55;27.67;;;29.90;99.60;;;;;;4155556;28;20048;-69
2021/11/07 13:13:05;;;;;;;45.63;28.45;;;29.80;99.70;;;;;;4154407;28;20077;-69
2021/11/07 13:20:34;;;;;;;49.00;27.48;;;29.80;99.90;;;;;;4157340;28;20406;-68
2021/11/07 13:27:22;;;;;;;48.03;27.25;;;29.70;99.90;;;;;;4155584;28;20135;-69
2021/11/07 13:29:32;;;;;;;41.90;26.30;;;29.70;99.90;;;;;;4159838;28;20056;-69